createdAt,value
2023-04-21T00:04:34.558Z,18.97
2023-04-21T00:09:37.682Z,16.27
2023-04-21T00:14:42.120Z,17.60
2023-04-21T00:19:45.048Z,16.93
2023-04-21T00:24:48.735Z,17.57
2023-04-21T00:29:53.058Z,19.43
2023-04-21T00:34:56.062Z,21.17
2023-04-21T00:39:59.869Z,20.80
2023-04-21T00:45:04.899Z,18.83
2023-04-21T00:50:08.190Z,18.83
2023-04-21T00:55:14.050Z,17.20
2023-04-21T01:00:20.806Z,21.10
2023-04-21T01:05:29.330Z,18.30
2023-04-21T01:10:33.511Z,18.17
2023-04-21T01:15:37.984Z,20.63
2023-04-21T01:20:50.186Z,23.57
2023-04-21T01:25:55.587Z,20.63
2023-04-21T01:30:58.913Z,18.10
2023-04-21T01:36:02.270Z,17.47
2023-04-21T01:41:07.170Z,19.37
2023-04-21T01:46:10.746Z,17.23
2023-04-21T01:51:14.213Z,15.23
2023-04-21T01:56:18.949Z,18.07
2023-04-21T02:01:21.991Z,17.73
2023-04-21T02:06:25.096Z,15.13
2023-04-21T02:11:30.475Z,18.20
2023-04-21T02:16:33.679Z,18.97
2023-04-21T02:21:37.038Z,22.13
2023-04-21T02:26:41.518Z,21.07
2023-04-21T02:31:57.869Z,23.43
2023-04-21T02:37:06.569Z,21.27
2023-04-21T02:42:11.594Z,24.40
2023-04-21T02:47:17.234Z,22.20
2023-04-21T02:52:20.197Z,21.97
2023-04-21T02:57:24.951Z,24.80
2023-04-21T03:02:28.077Z,25.23
2023-04-21T03:07:31.167Z,23.60
2023-04-21T03:12:35.591Z,25.40
2023-04-21T03:17:40.016Z,30.80
2023-04-21T03:22:42.958Z,28.60
2023-04-21T03:27:47.462Z,27.70
2023-04-21T03:32:51.352Z,31.37
2023-04-21T03:37:54.337Z,31.40
2023-04-21T03:42:58.750Z,30.10
2023-04-21T03:48:02.018Z,26.17
2023-04-21T03:53:05.008Z,34.73
2023-04-21T03:58:09.344Z,34.93
2023-04-21T04:03:12.457Z,32.60
2023-04-21T04:08:15.697Z,29.63
2023-04-21T04:13:21.577Z,28.37
2023-04-21T04:18:24.555Z,32.23
2023-04-21T04:23:27.906Z,28.77
2023-04-21T04:28:33.160Z,33.10
2023-04-21T04:33:36.215Z,28.40
2023-04-21T04:38:40.396Z,29.27
2023-04-21T04:43:45.061Z,32.37
2023-04-21T04:48:48.534Z,29.23
2023-04-21T04:53:51.488Z,28.17
2023-04-21T04:58:58.446Z,35.27
2023-04-21T05:04:01.799Z,29.50
2023-04-21T05:09:05.942Z,30.20
2023-04-21T05:14:10.552Z,30.27
2023-04-21T05:19:13.626Z,36.17
2023-04-21T05:24:17.105Z,27.07
2023-04-21T05:29:22.019Z,28.03
2023-04-21T05:34:25.134Z,25.87
2023-04-21T05:39:28.808Z,27.50
2023-04-21T05:44:33.206Z,29.90
2023-04-21T05:49:39.599Z,29.23
2023-04-21T05:54:42.780Z,34.40
2023-04-21T05:59:47.562Z,28.07
2023-04-21T06:04:54.095Z,28.73
2023-04-21T06:09:58.236Z,28.27
2023-04-21T06:15:02.809Z,29.77
2023-04-21T06:20:07.036Z,30.43
2023-04-21T06:25:10.366Z,28.93
2023-04-21T06:30:15.265Z,28.80
2023-04-21T06:35:20.844Z,29.00
2023-04-21T06:40:23.897Z,30.60
2023-04-21T06:45:28.374Z,30.27
2023-04-21T06:50:31.442Z,30.77
2023-04-21T06:55:34.976Z,27.87
2023-04-21T07:00:43.945Z,26.93
2023-04-21T07:05:47.350Z,28.03
2023-04-21T07:10:52.201Z,26.93
2023-04-21T07:15:57.593Z,26.03
2023-04-21T07:21:00.765Z,22.93
2023-04-21T07:26:03.806Z,26.03
2023-04-21T07:31:10.088Z,24.97
2023-04-21T07:36:13.365Z,25.47
2023-04-21T07:41:16.742Z,25.53
2023-04-21T07:46:24.346Z,24.67
2023-04-21T07:51:28.759Z,25.10
2023-04-21T07:56:31.946Z,24.30
2023-04-21T08:01:36.498Z,23.77
2023-04-21T08:06:39.707Z,20.73
2023-04-21T08:11:42.836Z,21.87
2023-04-21T08:16:47.703Z,20.50
2023-04-21T08:21:52.968Z,19.70
2023-04-21T08:26:56.080Z,20.80
2023-04-21T08:32:00.702Z,20.57
2023-04-21T08:37:03.900Z,21.47
2023-04-21T08:42:07.688Z,20.33
2023-04-21T08:47:13.291Z,19.80
2023-04-21T08:52:16.379Z,19.60
2023-04-21T08:57:19.632Z,17.67
2023-04-21T09:02:24.071Z,18.20
2023-04-21T09:07:34.892Z,16.73
2023-04-21T09:12:40.902Z,17.33
2023-04-21T09:17:46.740Z,16.80
2023-04-21T09:22:51.266Z,14.73
2023-04-21T09:27:56.162Z,15.27
2023-04-21T09:33:08.312Z,15.90
2023-04-21T09:38:17.301Z,15.07
2023-04-21T09:43:20.404Z,15.13
2023-04-21T09:48:28.686Z,14.90
2023-04-21T09:53:37.140Z,15.32
2023-04-21T09:58:45.440Z,16.98
2023-04-21T10:03:50.950Z,16.25
2023-04-21T10:08:58.554Z,15.88
2023-04-21T10:14:01.754Z,14.50
2023-04-21T10:19:24.752Z,14.35
2023-04-21T10:24:30.501Z,13.20
2023-04-21T10:34:43.213Z,13.95
2023-04-21T10:39:52.372Z,14.23
2023-04-21T10:45:04.192Z,14.63
2023-04-21T10:50:15.754Z,15.13
2023-04-21T10:55:20.685Z,14.90
2023-04-21T11:00:25.362Z,14.60
2023-04-21T11:05:36.539Z,13.52
2023-04-21T11:10:48.591Z,12.90
2023-04-21T11:16:03.557Z,12.48
2023-04-21T11:21:13.848Z,11.70
2023-04-21T11:26:17.144Z,12.43
2023-04-21T11:31:20.254Z,11.70
2023-04-21T11:36:24.985Z,13.13
2023-04-21T11:41:28.345Z,14.13
2023-04-21T11:46:33.684Z,12.98
2023-04-21T11:51:40.056Z,15.10
2023-04-21T11:56:44.733Z,14.30
2023-04-21T12:01:48.992Z,13.05
2023-04-21T12:06:59.239Z,13.27
2023-04-21T12:12:05.483Z,11.55
2023-04-21T12:17:08.703Z,11.20
2023-04-21T12:22:14.636Z,12.60
2023-04-21T12:27:19.217Z,11.55
2023-04-21T12:32:22.690Z,12.10
2023-04-21T12:37:27.258Z,10.85
2023-04-21T12:42:30.438Z,12.55
2023-04-21T12:47:33.937Z,13.20
2023-04-21T12:52:38.387Z,13.30
2023-04-21T12:57:41.399Z,13.50
2023-04-21T13:02:44.801Z,13.30
2023-04-21T13:07:49.673Z,13.95
2023-04-21T13:12:52.765Z,12.68
2023-04-21T13:17:55.882Z,14.50
2023-04-21T13:23:00.355Z,12.77
2023-04-21T13:28:07.514Z,14.80
2023-04-21T13:33:11.138Z,15.02
2023-04-21T13:38:15.683Z,14.70
2023-04-21T13:43:19.195Z,14.60
2023-04-21T13:48:24.327Z,13.77
2023-04-21T13:53:28.883Z,15.75
2023-04-21T13:58:31.906Z,15.90
2023-04-21T14:03:35.060Z,16.13
2023-04-21T14:08:40.137Z,16.85
2023-04-21T14:13:56.069Z,15.85
2023-04-21T14:19:06.795Z,16.25
2023-04-21T14:24:12.491Z,18.08
2023-04-21T14:29:15.804Z,16.80
2023-04-21T14:34:18.787Z,18.50
2023-04-21T14:39:23.270Z,19.23
2023-04-21T14:44:26.637Z,18.25
2023-04-21T14:49:30.082Z,18.58
2023-04-21T14:54:34.612Z,17.95
2023-04-21T14:59:37.752Z,16.98
2023-04-21T15:04:40.890Z,17.88
2023-04-21T15:09:45.945Z,19.85
2023-04-21T15:14:49.049Z,17.25
2023-04-21T15:19:52.176Z,16.55
2023-04-21T15:24:56.813Z,16.73
2023-04-21T15:30:00.023Z,16.98
2023-04-21T15:35:03.193Z,17.10
2023-04-21T15:40:09.687Z,16.45
2023-04-21T15:45:17.831Z,16.90
2023-04-21T15:50:20.972Z,16.48
2023-04-21T15:55:27.859Z,15.52
2023-04-21T16:00:30.936Z,15.80
2023-04-21T16:05:36.178Z,15.82
2023-04-21T16:10:40.769Z,15.27
2023-04-21T16:15:43.911Z,15.20
2023-04-21T16:20:47.468Z,14.65
2023-04-21T16:25:52.166Z,15.35
2023-04-21T16:30:55.429Z,14.88
2023-04-21T16:35:58.467Z,15.30
2023-04-21T16:41:03.099Z,15.25
2023-04-21T16:46:07.395Z,16.23
2023-04-21T16:51:10.665Z,15.98
2023-04-21T16:56:15.696Z,16.60
2023-04-21T17:01:19.775Z,16.92
2023-04-21T17:06:23.069Z,16.52
2023-04-21T17:11:28.952Z,15.30
2023-04-21T17:16:32.413Z,15.82
2023-04-21T17:21:35.945Z,16.85
2023-04-21T17:26:40.887Z,13.65
2023-04-21T17:31:44.090Z,12.00
2023-04-21T17:36:50.105Z,9.85
2023-04-21T17:41:54.683Z,9.95
2023-04-21T17:46:58.149Z,10.05
2023-04-21T17:52:01.381Z,10.35
2023-04-21T17:57:06.814Z,10.38
2023-04-21T18:02:09.991Z,6.20
2023-04-21T18:07:16.261Z,5.50
2023-04-21T18:12:20.654Z,7.43
2023-04-21T18:17:24.270Z,7.60
2023-04-21T18:22:27.466Z,6.80
2023-04-21T18:27:31.918Z,6.57
2023-04-21T18:32:35.471Z,5.03
2023-04-21T18:37:38.550Z,3.80
2023-04-21T18:42:43.223Z,4.80
2023-04-21T18:47:46.947Z,5.70
2023-04-21T18:52:50.211Z,8.00
2023-04-21T18:57:56.615Z,6.97
2023-04-21T19:03:01.543Z,7.20
2023-04-21T19:08:05.651Z,8.30
2023-04-21T19:13:10.599Z,7.60
2023-04-21T19:18:13.743Z,7.20
2023-04-21T19:23:16.911Z,8.33
2023-04-21T19:28:21.564Z,8.43
2023-04-21T19:33:24.684Z,7.90
2023-04-21T19:38:28.031Z,6.60
2023-04-21T19:43:32.773Z,5.90
2023-04-21T19:48:36.018Z,6.23
2023-04-21T19:53:39.439Z,6.70
2023-04-21T19:58:45.253Z,5.60
2023-04-21T20:03:51.709Z,4.67
2023-04-21T20:08:55.473Z,5.10
2023-04-21T20:14:00.448Z,9.10
2023-04-21T20:19:04.406Z,6.30
2023-04-21T20:24:08.769Z,6.83
2023-04-21T20:29:13.231Z,5.83
2023-04-21T20:34:16.293Z,6.33
2023-04-21T20:39:19.455Z,4.50
2023-04-21T20:44:24.403Z,6.77
2023-04-21T20:49:28.042Z,4.53
2023-04-21T20:54:31.154Z,4.53
2023-04-21T20:59:35.877Z,6.67
2023-04-21T21:04:39.784Z,9.67
2023-04-21T21:09:43.172Z,11.77
2023-04-21T21:14:47.568Z,19.33
2023-04-21T21:19:50.920Z,13.03
2023-04-21T21:24:54.142Z,10.87
2023-04-21T21:29:58.731Z,14.07
2023-04-21T21:35:01.893Z,10.70
2023-04-21T21:40:06.183Z,12.73
2023-04-21T21:45:12.012Z,10.53
2023-04-21T21:50:14.999Z,10.43
2023-04-21T21:55:18.326Z,11.30
2023-04-21T22:00:23.915Z,9.23
2023-04-21T22:05:27.101Z,9.73
2023-04-21T22:10:30.302Z,10.43
2023-04-21T22:15:37.026Z,9.67
2023-04-21T22:20:40.229Z,10.07
2023-04-21T22:25:43.411Z,9.93
2023-04-21T22:30:52.127Z,12.67
2023-04-21T22:35:55.216Z,10.80
2023-04-21T22:40:58.282Z,11.10
2023-04-21T22:46:03.350Z,9.90
2023-04-21T22:51:07.320Z,9.00
2023-04-21T22:56:10.490Z,9.57
2023-04-21T23:01:15.097Z,8.53
2023-04-21T23:06:18.221Z,8.73
2023-04-21T23:11:21.362Z,7.70
2023-04-21T23:16:26.430Z,9.33
2023-04-21T23:21:29.571Z,8.77
2023-04-21T23:26:32.595Z,7.17
2023-04-21T23:31:37.425Z,6.60
2023-04-21T23:36:40.469Z,9.33
2023-04-21T23:41:43.827Z,8.30
2023-04-21T23:46:48.452Z,8.33
2023-04-21T23:51:51.983Z,8.30
2023-04-21T23:56:54.982Z,10.60
